createdAt,value
2022-11-28T00:01:29.142Z,96284.91
2022-11-28T00:03:55.866Z,96277.97
2022-11-28T00:06:23.217Z,96281.66
2022-11-28T00:08:50.102Z,96270.34
2022-11-28T00:11:16.779Z,96266.97
2022-11-28T00:13:43.575Z,96260.06
2022-11-28T00:16:14.815Z,96254.00
2022-11-28T00:18:41.668Z,96249.59
2022-11-28T00:21:11.283Z,96255.22
2022-11-28T00:23:38.558Z,96255.38
2022-11-28T00:26:09.064Z,96257.19
2022-11-28T00:28:35.900Z,96258.31
2022-11-28T00:31:03.875Z,96252.25
2022-11-28T00:33:31.485Z,96243.50
2022-11-28T00:36:03.855Z,96231.09
2022-11-28T00:38:30.561Z,96227.69
2022-11-28T00:41:06.172Z,96225.16
2022-11-28T00:43:33.356Z,96229.66
2022-11-28T00:46:00.844Z,96219.38
2022-11-28T00:48:27.793Z,96206.81
2022-11-28T00:50:55.595Z,96217.69
2022-11-28T00:53:22.580Z,96213.41
2022-11-28T00:55:49.134Z,96212.59
2022-11-28T00:58:15.732Z,96203.00
2022-11-28T01:00:42.517Z,96193.25
2022-11-28T01:03:09.302Z,96190.72
2022-11-28T01:05:40.622Z,96194.41
2022-11-28T01:08:07.700Z,96197.16
2022-11-28T01:10:34.372Z,96198.13
2022-11-28T01:13:01.140Z,96191.09
2022-11-28T01:15:27.782Z,96187.72
2022-11-28T01:17:54.482Z,96190.50
2022-11-28T01:20:21.062Z,96194.19
2022-11-28T01:22:48.708Z,96189.81
2022-11-28T01:25:15.308Z,96183.63
2022-11-28T01:27:41.913Z,96179.34
2022-11-28T01:30:08.558Z,96181.19
2022-11-28T01:32:35.262Z,96184.00
2022-11-28T01:35:01.805Z,96190.34
2022-11-28T01:37:31.280Z,96172.56
2022-11-28T01:39:58.158Z,96171.16
2022-11-28T01:42:26.700Z,96181.72
2022-11-28T01:44:53.150Z,96183.69
2022-11-28T01:47:26.892Z,96206.06
2022-11-28T01:49:53.918Z,96207.91
2022-11-28T01:52:21.523Z,96206.22
2022-11-28T01:54:51.033Z,96198.44
2022-11-28T01:57:20.740Z,96199.28
2022-11-28T01:59:57.750Z,96211.81
2022-11-28T02:02:37.912Z,96201.25
2022-11-28T02:05:05.632Z,96192.38
2022-11-28T02:07:33.425Z,96196.06
2022-11-28T02:10:01.421Z,96178.28
2022-11-28T02:12:40.162Z,96181.09
2022-11-28T02:15:11.365Z,96172.22
2022-11-28T02:17:44.248Z,96163.38
2022-11-28T02:20:32.431Z,96163.50
2022-11-28T02:23:29.829Z,96170.69
2022-11-28T02:26:02.240Z,96163.75
2022-11-28T02:28:51.974Z,96153.91
2022-11-28T02:31:43.009Z,96156.72
2022-11-28T02:34:17.895Z,96153.19
2022-11-28T02:36:51.030Z,96137.28
2022-11-28T02:39:31.588Z,96131.94
2022-11-28T02:42:07.620Z,96128.53
2022-11-28T02:44:41.086Z,96127.66
2022-11-28T02:47:15.228Z,96124.16
2022-11-28T02:49:54.627Z,96115.31
2022-11-28T02:52:25.921Z,96114.59
2022-11-28T02:54:54.780Z,96123.44
2022-11-28T02:57:21.541Z,96118.63
2022-11-28T03:04:20.074Z,96120.19
2022-11-28T03:07:05.528Z,96117.81
2022-11-28T03:09:46.604Z,96126.66
2022-11-28T03:12:33.588Z,96118.75
2022-11-28T03:15:06.447Z,96113.41
2022-11-28T03:18:04.790Z,96118.06
2022-11-28T03:20:44.732Z,96104.81
2022-11-28T03:23:20.085Z,96105.69
2022-11-28T03:26:00.167Z,96099.63
2022-11-28T03:28:48.510Z,96088.94
2022-11-28T03:31:22.537Z,96072.28
2022-11-28T03:33:53.548Z,96083.69
2022-11-28T03:36:23.784Z,96077.50
2022-11-28T03:38:54.239Z,96064.28
2022-11-28T03:41:27.992Z,96050.91
2022-11-28T03:43:57.463Z,96069.63
2022-11-28T03:46:27.594Z,96060.72
2022-11-28T03:48:57.740Z,96051.03
2022-11-28T03:51:40.391Z,96042.31
2022-11-28T03:54:25.021Z,96046.81
2022-11-28T03:57:06.689Z,96036.13
2022-11-28T03:59:40.305Z,96027.34
2022-11-28T04:02:32.819Z,96030.88
2022-11-28T04:05:12.180Z,96041.56
2022-11-28T04:08:20.842Z,96041.94
2022-11-28T04:10:56.982Z,96047.16
2022-11-28T04:13:29.693Z,96057.84
2022-11-28T04:16:19.079Z,96045.47
2022-11-28T04:18:56.722Z,96054.47
2022-11-28T04:21:29.486Z,96049.97
2022-11-28T04:24:01.473Z,96050.13
2022-11-28T04:26:34.579Z,96045.75
2022-11-28T04:29:13.745Z,96049.41
2022-11-28T04:31:41.168Z,96040.50
2022-11-28T04:34:09.883Z,96051.22
2022-11-28T04:36:39.204Z,96058.50
2022-11-28T04:39:09.606Z,96057.56
2022-11-28T04:41:40.044Z,96046.97
2022-11-28T04:44:13.704Z,96035.47
2022-11-28T04:46:43.765Z,96070.19
2022-11-28T04:49:11.292Z,96092.53
2022-11-28T04:52:07.673Z,96071.16
2022-11-28T04:55:06.330Z,96069.50
2022-11-28T04:57:45.005Z,96065.94
2022-11-28T05:00:15.034Z,96072.28
2022-11-28T05:02:43.649Z,96043.84
2022-11-28T05:05:12.930Z,96044.13
2022-11-28T05:07:39.559Z,96039.75
2022-11-28T05:10:07.321Z,96045.25
2022-11-28T05:12:34.109Z,96065.75
2022-11-28T05:15:00.994Z,96056.91
2022-11-28T05:17:27.548Z,96058.75
2022-11-28T05:19:54.146Z,96030.84
2022-11-28T05:22:21.586Z,96061.53
2022-11-28T05:24:48.149Z,96068.72
2022-11-28T05:27:14.752Z,96048.31
2022-11-28T05:29:46.793Z,96052.81
2022-11-28T05:32:16.178Z,96053.06
2022-11-28T05:34:42.959Z,96063.63
2022-11-28T05:37:09.798Z,96065.44
2022-11-28T05:39:36.323Z,96061.94
2022-11-28T05:42:03.321Z,96066.41
2022-11-28T05:44:29.915Z,96067.28
2022-11-28T05:46:57.842Z,96053.22
2022-11-28T05:49:25.494Z,96039.84
2022-11-28T05:51:52.108Z,96043.50
2022-11-28T05:54:18.699Z,96039.13
2022-11-28T05:56:45.347Z,96031.25
2022-11-28T05:59:13.293Z,96016.06
2022-11-28T06:01:40.313Z,96026.88
2022-11-28T06:04:07.115Z,96013.50
2022-11-28T06:06:35.042Z,96013.50
2022-11-28T06:09:02.771Z,96007.34
2022-11-28T06:11:31.244Z,95991.44
2022-11-28T06:13:57.909Z,96011.84
2022-11-28T06:16:28.418Z,95993.25
2022-11-28T06:18:56.911Z,95979.78
2022-11-28T06:21:25.928Z,95968.38
2022-11-28T06:23:54.056Z,95934.63
2022-11-28T06:26:23.673Z,95925.63
2022-11-28T06:28:50.299Z,95930.28
2022-11-28T06:31:27.314Z,95956.97
2022-11-28T06:33:54.345Z,95933.06
2022-11-28T06:36:21.771Z,95948.09
2022-11-28T06:38:48.732Z,95995.34
2022-11-28T06:41:18.594Z,96007.88
2022-11-28T06:43:45.531Z,96014.03
2022-11-28T06:46:16.497Z,96036.41
2022-11-28T06:48:44.754Z,95996.84
2022-11-28T06:51:11.826Z,95988.28
2022-11-28T06:53:38.549Z,96016.78
2022-11-28T06:56:07.535Z,96024.78
2022-11-28T06:58:34.624Z,96025.78
2022-11-28T07:01:09.687Z,96014.22
2022-11-28T07:03:37.027Z,96026.03
2022-11-28T07:06:07.788Z,96004.66
2022-11-28T07:08:35.228Z,95992.56
2022-11-28T07:11:12.427Z,96018.28
2022-11-28T07:13:40.314Z,96005.91
2022-11-28T07:16:07.904Z,96017.72
2022-11-28T07:18:34.783Z,95999.44
2022-11-28T07:21:01.604Z,96001.03
2022-11-28T07:23:28.262Z,95989.09
2022-11-28T07:26:02.157Z,95983.81
2022-11-28T07:28:29.886Z,96010.84
2022-11-28T07:31:10.722Z,96004.00
2022-11-28T07:33:38.445Z,95986.59
2022-11-28T07:36:08.612Z,95983.84
2022-11-28T07:38:35.231Z,95988.34
2022-11-28T07:41:12.798Z,96014.44
2022-11-28T07:43:41.020Z,96060.06
2022-11-28T07:46:09.533Z,96075.31
2022-11-28T07:48:36.548Z,96074.66
2022-11-28T07:51:08.664Z,96083.53
2022-11-28T07:53:36.134Z,96076.69
2022-11-28T07:56:06.733Z,96075.16
2022-11-28T07:58:35.211Z,96071.81
2022-11-28T08:01:09.497Z,96065.06
2022-11-28T08:03:37.715Z,96047.06
2022-11-28T08:06:05.957Z,96047.09
2022-11-28T08:08:32.812Z,96044.00
2022-11-28T08:11:00.786Z,96053.72
2022-11-28T08:13:27.973Z,96051.34
2022-11-28T08:15:54.892Z,96056.13
2022-11-28T08:18:21.817Z,96064.44
2022-11-28T08:20:48.379Z,96063.91
2022-11-28T08:23:15.157Z,96056.00
2022-11-28T08:25:41.746Z,96057.13
2022-11-28T08:28:08.384Z,96056.72
2022-11-28T08:30:35.067Z,96049.09
2022-11-28T08:33:01.711Z,96052.06
2022-11-28T08:35:28.766Z,96044.28
2022-11-28T08:38:00.379Z,96034.00
2022-11-28T08:40:28.733Z,96040.63
2022-11-28T08:42:55.732Z,96037.50
2022-11-28T08:45:22.984Z,96046.78
2022-11-28T08:47:50.165Z,96056.09
2022-11-28T08:50:16.738Z,96067.25
2022-11-28T08:52:43.389Z,96055.06
2022-11-28T08:55:11.787Z,96053.66
2022-11-28T08:57:38.456Z,96049.88
2022-11-28T09:00:06.259Z,96057.47
2022-11-28T09:02:32.993Z,96054.88
2022-11-28T09:04:59.567Z,96049.09
2022-11-28T09:07:26.172Z,96065.59
2022-11-28T09:09:53.181Z,96067.84
2022-11-28T09:12:19.736Z,96060.31
2022-11-28T09:14:46.386Z,96067.94
2022-11-28T09:17:15.657Z,96066.66
2022-11-28T09:19:43.179Z,96075.94
2022-11-28T09:22:10.017Z,96060.41
2022-11-28T09:24:36.662Z,96067.16
2022-11-28T09:27:03.234Z,96074.91
2022-11-28T09:29:29.841Z,96077.19
2022-11-28T09:31:56.430Z,96081.41
2022-11-28T09:34:23.033Z,96080.94
2022-11-28T09:36:50.119Z,96078.94
2022-11-28T09:39:16.932Z,96073.00
2022-11-28T09:42:16.873Z,96078.06
2022-11-28T09:44:57.437Z,96073.09
2022-11-28T09:47:28.296Z,96075.44
2022-11-28T09:49:59.124Z,96071.63
2022-11-28T09:52:30.582Z,96068.47
2022-11-28T09:55:06.671Z,96070.88
2022-11-28T09:57:41.306Z,96065.19
2022-11-28T10:00:18.715Z,96071.94
2022-11-28T10:02:59.664Z,96062.75
2022-11-28T10:05:41.734Z,96066.81
2022-11-28T10:08:29.828Z,96066.34
2022-11-28T10:11:15.582Z,96065.22
2022-11-28T10:14:10.179Z,96065.75
2022-11-28T10:16:49.012Z,96062.78
2022-11-28T10:19:46.146Z,96073.22
2022-11-28T10:22:07.830Z,96074.59
2022-11-28T10:24:38.732Z,96072.44
2022-11-28T10:27:06.125Z,96081.03
2022-11-28T10:29:45.880Z,96080.75
2022-11-28T10:32:21.343Z,96080.28
2022-11-28T10:35:09.515Z,96079.09
2022-11-28T10:37:38.131Z,96084.03
2022-11-28T10:40:21.087Z,96083.72
2022-11-28T10:43:18.344Z,96074.50
2022-11-28T10:46:14.589Z,96075.88
2022-11-28T10:49:00.290Z,96077.41
2022-11-28T10:51:32.941Z,96071.88
2022-11-28T10:54:18.555Z,96073.41
2022-11-28T10:57:12.653Z,96071.09
2022-11-28T10:59:54.549Z,96078.88
2022-11-28T11:02:27.115Z,96082.09
2022-11-28T11:04:54.110Z,96079.09
2022-11-28T11:07:32.490Z,96085.84
2022-11-28T11:10:05.949Z,96084.69
2022-11-28T11:12:34.054Z,96089.75
2022-11-28T11:15:21.725Z,96092.97
2022-11-28T11:17:50.738Z,96083.75
2022-11-28T11:20:23.411Z,96084.41
2022-11-28T11:23:20.485Z,96071.50
2022-11-28T11:25:51.221Z,96072.88
2022-11-28T11:28:40.555Z,96077.22
2022-11-28T11:31:21.291Z,96070.03
2022-11-28T11:33:52.795Z,96061.28
2022-11-28T11:36:31.146Z,96059.56
2022-11-28T11:39:08.293Z,96057.38
2022-11-28T11:41:34.956Z,96059.38
2022-11-28T11:44:13.596Z,96052.44
2022-11-28T11:46:52.555Z,96044.72
2022-11-28T11:49:34.057Z,96057.31
2022-11-28T11:52:12.994Z,96042.66
2022-11-28T11:55:17.953Z,96041.09
2022-11-28T11:57:50.850Z,96032.50
2022-11-28T12:00:20.173Z,96026.63
2022-11-28T12:02:47.747Z,96026.22
2022-11-28T12:05:22.901Z,96015.94
2022-11-28T12:08:16.672Z,96015.56
2022-11-28T12:10:50.759Z,96010.66
2022-11-28T12:13:21.295Z,96014.69
2022-11-28T12:16:24.869Z,96007.91
2022-11-28T12:19:06.510Z,96011.22
2022-11-28T12:21:42.476Z,96010.88
2022-11-28T12:24:15.538Z,96005.41
2022-11-28T12:26:46.905Z,96010.25
2022-11-28T12:29:33.765Z,96003.34
2022-11-28T12:32:22.919Z,95994.91
2022-11-28T12:35:13.977Z,96001.59
2022-11-28T12:38:10.231Z,96000.34
2022-11-28T12:40:43.698Z,95992.91
2022-11-28T12:43:17.279Z,95997.75
2022-11-28T12:46:05.965Z,95989.97
2022-11-28T12:49:02.511Z,95988.75
2022-11-28T12:52:03.366Z,95983.84
2022-11-28T12:54:30.568Z,95990.53
2022-11-28T12:57:17.047Z,95994.53
2022-11-28T13:00:09.621Z,95988.59
2022-11-28T13:02:47.455Z,95980.16
2022-11-28T13:05:26.236Z,95984.97
2022-11-28T13:08:30.081Z,95975.88
2022-11-28T13:11:19.379Z,95978.69
2022-11-28T13:13:56.292Z,95979.16
2022-11-28T13:16:29.511Z,95977.56
2022-11-28T13:19:03.197Z,95974.34
2022-11-28T13:21:38.943Z,95977.34
2022-11-28T13:24:26.541Z,95963.53
2022-11-28T13:27:12.001Z,95963.84
2022-11-28T13:29:41.331Z,95966.81
2022-11-28T13:32:22.232Z,95965.28
2022-11-28T13:34:49.668Z,95970.09
2022-11-28T13:40:18.119Z,95975.22
2022-11-28T13:43:04.357Z,95968.31
2022-11-28T13:45:39.154Z,95969.47
2022-11-28T13:51:30.951Z,95957.78
2022-11-28T13:54:16.964Z,95958.78
2022-11-28T13:57:01.092Z,95955.56
2022-11-28T13:59:27.829Z,95959.25
2022-11-28T14:01:58.009Z,95963.03
2022-11-28T14:04:26.209Z,95959.66
2022-11-28T14:06:59.257Z,95961.66
2022-11-28T14:09:38.401Z,95965.63
2022-11-28T14:12:37.625Z,95960.25
2022-11-28T14:15:22.760Z,95957.84
2022-11-28T14:17:52.238Z,95970.53
2022-11-28T14:20:24.850Z,95964.50
2022-11-28T14:23:28.754Z,95958.56
2022-11-28T14:25:56.347Z,95963.25
2022-11-28T14:28:37.774Z,95960.72
2022-11-28T14:31:11.147Z,95950.97
2022-11-28T14:33:40.742Z,95951.56
2022-11-28T14:36:29.710Z,95951.84
2022-11-28T14:39:15.842Z,95950.31
2022-11-28T14:42:02.317Z,95948.78
2022-11-28T14:44:54.575Z,95949.06
2022-11-28T14:47:28.250Z,95954.75
2022-11-28T14:50:07.037Z,95949.66
2022-11-28T14:52:39.640Z,95957.00
2022-11-28T14:55:10.202Z,95954.47
2022-11-28T14:57:57.366Z,95951.38
2022-11-28T15:00:25.248Z,95948.00
2022-11-28T15:03:04.737Z,95939.41
2022-11-28T15:05:50.704Z,95941.41
2022-11-28T15:08:45.471Z,95936.19
2022-11-28T15:11:26.843Z,95942.69
2022-11-28T15:14:22.267Z,95938.28
2022-11-28T15:16:55.485Z,95939.44
2022-11-28T15:19:33.079Z,95941.25
2022-11-28T15:22:00.748Z,95944.06
2022-11-28T15:24:35.808Z,95939.81
2022-11-28T15:27:12.318Z,95944.34
2022-11-28T15:29:39.574Z,95932.94
2022-11-28T15:32:06.581Z,95939.13
2022-11-28T15:34:35.513Z,95935.75
2022-11-28T15:37:05.901Z,95942.09
2022-11-28T15:39:40.956Z,95936.88
2022-11-28T15:42:19.449Z,95928.88
2022-11-28T15:44:46.428Z,95918.16
2022-11-28T15:47:20.666Z,95925.50
2022-11-28T15:50:19.401Z,95931.84
2022-11-28T15:53:15.905Z,95930.03
2022-11-28T15:55:43.760Z,95930.84
2022-11-28T15:58:29.083Z,95934.50
2022-11-28T16:01:23.265Z,95931.00
2022-11-28T16:03:51.294Z,95932.69
2022-11-28T16:06:19.053Z,95929.31
2022-11-28T16:08:53.361Z,95925.63
2022-11-28T16:11:23.412Z,95912.53
2022-11-28T16:13:51.729Z,95920.56
2022-11-28T16:16:22.420Z,95921.44
2022-11-28T16:18:59.433Z,95918.88
2022-11-28T16:21:30.349Z,95918.88
2022-11-28T16:23:57.010Z,95925.22
2022-11-28T16:26:35.641Z,95919.03
2022-11-28T16:29:05.256Z,95924.50
2022-11-28T16:31:32.275Z,95922.13
2022-11-28T16:33:59.822Z,95916.66
2022-11-28T16:36:33.812Z,95916.91
2022-11-28T16:39:16.032Z,95917.75
2022-11-28T16:42:07.844Z,95914.38
2022-11-28T16:44:34.779Z,95917.19
2022-11-28T16:47:01.633Z,95915.50
2022-11-28T16:49:34.673Z,95912.13
2022-11-28T16:52:23.724Z,95919.31
2022-11-28T16:54:54.536Z,95914.94
2022-11-28T16:57:22.006Z,95915.94
2022-11-28T16:59:52.661Z,95916.78
2022-11-28T17:02:22.099Z,95914.38
2022-11-28T17:04:49.989Z,95911.56
2022-11-28T17:07:21.806Z,95912.69
2022-11-28T17:09:49.348Z,95909.16
2022-11-28T17:12:27.604Z,95916.34
2022-11-28T17:14:55.123Z,95917.34
2022-11-28T17:17:23.509Z,95920.03
2022-11-28T17:19:50.376Z,95917.50
2022-11-28T17:22:20.496Z,95904.38
2022-11-28T17:24:47.953Z,95915.94
2022-11-28T17:27:15.313Z,95916.19
2022-11-28T17:29:42.445Z,95917.91
2022-11-28T17:32:11.833Z,95918.88
2022-11-28T17:34:38.869Z,95914.47
2022-11-28T17:37:05.546Z,95923.50
2022-11-28T17:39:32.179Z,95917.31
2022-11-28T17:41:59.329Z,95909.44
2022-11-28T17:44:33.811Z,95913.94
2022-11-28T17:47:01.697Z,95916.75
2022-11-28T17:49:28.817Z,95928.44
2022-11-28T17:51:55.895Z,95921.53
2022-11-28T17:54:24.829Z,95927.03
2022-11-28T17:56:52.758Z,95915.63
2022-11-28T17:59:21.864Z,95919.28
2022-11-28T18:01:49.339Z,95921.09
2022-11-28T18:04:22.774Z,95919.56
2022-11-28T18:06:50.595Z,95920.56
2022-11-28T18:09:17.338Z,95919.69
2022-11-28T18:11:46.645Z,95915.34
2022-11-28T18:14:14.030Z,95921.66
2022-11-28T18:16:43.645Z,95911.09
2022-11-28T18:19:10.426Z,95912.09
2022-11-28T18:21:37.556Z,95907.88
2022-11-28T18:24:04.628Z,95907.72
2022-11-28T18:26:31.808Z,95900.00
2022-11-28T18:28:59.561Z,95912.34
2022-11-28T18:31:28.375Z,95910.69
2022-11-28T18:34:01.468Z,95908.97
2022-11-28T18:36:32.321Z,95900.56
2022-11-28T18:39:02.883Z,95903.22
2022-11-28T18:41:30.433Z,95911.94
2022-11-28T18:44:02.172Z,95910.25
2022-11-28T18:46:29.378Z,95907.69
2022-11-28T18:48:56.716Z,95908.72
2022-11-28T18:51:27.146Z,95906.03
2022-11-28T18:53:55.321Z,95904.50
2022-11-28T18:56:23.543Z,95904.50
2022-11-28T18:58:52.357Z,95903.78
2022-11-28T19:01:28.390Z,95902.91
2022-11-28T19:03:57.698Z,95903.91
2022-11-28T19:06:24.357Z,95904.88
2022-11-28T19:08:57.106Z,95901.63
2022-11-28T19:11:24.873Z,95906.84
2022-11-28T19:13:53.285Z,95906.00
2022-11-28T19:16:31.764Z,95905.31
2022-11-28T19:18:59.028Z,95907.97
2022-11-28T19:21:29.754Z,95896.59
2022-11-28T19:23:57.103Z,95903.91
2022-11-28T19:26:25.342Z,95910.09
2022-11-28T19:28:54.282Z,95903.31
2022-11-28T19:31:23.862Z,95905.88
2022-11-28T19:34:00.566Z,95906.00
2022-11-28T19:36:39.223Z,95910.50
2022-11-28T19:39:06.918Z,95909.63
2022-11-28T19:41:34.250Z,95908.09
2022-11-28T19:44:02.028Z,95913.44
2022-11-28T19:46:35.050Z,95899.38
2022-11-28T19:49:04.399Z,95909.22
2022-11-28T19:51:31.144Z,95904.84
2022-11-28T19:54:02.870Z,95912.03
2022-11-28T19:56:31.478Z,95905.97
2022-11-28T19:58:58.532Z,95905.13
2022-11-28T20:01:26.531Z,95901.84
2022-11-28T20:03:53.797Z,95913.38
2022-11-28T20:06:26.354Z,95899.31
2022-11-28T20:08:53.995Z,95912.69
2022-11-28T20:11:26.669Z,95914.63
2022-11-28T20:13:58.214Z,95922.66
2022-11-28T20:16:25.918Z,95923.63
2022-11-28T20:18:52.770Z,95920.25
2022-11-28T20:21:20.339Z,95923.91
2022-11-28T20:23:50.613Z,95924.75
2022-11-28T20:26:19.674Z,95920.53
2022-11-28T20:28:46.870Z,95918.69
2022-11-28T20:31:21.591Z,95926.84
2022-11-28T20:33:49.061Z,95918.41
2022-11-28T20:36:21.055Z,95918.41
2022-11-28T20:38:48.944Z,95925.56
2022-11-28T20:41:17.972Z,95924.84
2022-11-28T20:43:44.881Z,95921.34
2022-11-28T20:46:15.625Z,95921.47
2022-11-28T20:48:43.305Z,95917.97
2022-11-28T20:51:11.553Z,95918.94
2022-11-28T20:53:41.056Z,95921.75
2022-11-28T20:56:11.221Z,95920.03
2022-11-28T20:58:38.119Z,95927.22
2022-11-28T21:01:05.280Z,95922.00
2022-11-28T21:03:33.639Z,95920.34
2022-11-28T21:06:01.448Z,95923.13
2022-11-28T21:08:31.216Z,95925.81
2022-11-28T21:10:57.788Z,95932.13
2022-11-28T21:13:25.761Z,95925.94
2022-11-28T21:15:53.846Z,95925.22
2022-11-28T21:18:20.500Z,95920.00
2022-11-28T21:20:47.441Z,95932.53
2022-11-28T21:23:15.925Z,95928.44
2022-11-28T21:25:43.447Z,95926.59
2022-11-28T21:28:12.757Z,95924.94
2022-11-28T21:30:42.176Z,95940.09
2022-11-28T21:33:11.079Z,95934.91
2022-11-28T21:35:40.672Z,95928.97
2022-11-28T21:38:08.430Z,95938.53
2022-11-28T21:40:35.012Z,95937.81
2022-11-28T21:43:01.716Z,95931.91
2022-11-28T21:45:28.685Z,95931.91
2022-11-28T21:47:55.648Z,95926.09
2022-11-28T21:50:23.164Z,95935.56
2022-11-28T21:52:50.056Z,95935.69
2022-11-28T21:55:17.223Z,95928.63
2022-11-28T21:57:44.005Z,95927.09
2022-11-28T22:00:20.787Z,95937.78
2022-11-28T22:03:03.258Z,95936.94
2022-11-28T22:05:31.503Z,95923.84
2022-11-28T22:07:59.062Z,95940.69
2022-11-28T22:10:26.066Z,95936.47
2022-11-28T22:12:56.084Z,95933.81
2022-11-28T22:15:23.284Z,95932.97
2022-11-28T22:17:50.173Z,95927.75
2022-11-28T22:20:17.985Z,95945.59
2022-11-28T22:22:44.550Z,95936.88
2022-11-28T22:25:11.615Z,95937.72
2022-11-28T22:27:38.276Z,95936.88
2022-11-28T22:30:07.072Z,95929.00
2022-11-28T22:32:34.122Z,95932.75
2022-11-28T22:35:02.619Z,95930.91
2022-11-28T22:37:30.100Z,95932.88
2022-11-28T22:39:57.059Z,95928.50
2022-11-28T22:42:24.055Z,95931.16
2022-11-28T22:44:50.772Z,95934.84
2022-11-28T22:47:17.357Z,95934.97
2022-11-28T22:49:44.085Z,95937.63
2022-11-28T22:52:10.676Z,95933.25
2022-11-28T22:54:37.253Z,95934.25
2022-11-28T22:57:03.938Z,95934.38
2022-11-28T22:59:33.612Z,95931.69
2022-11-28T23:02:01.592Z,95934.66
2022-11-28T23:04:28.913Z,95930.28
2022-11-28T23:07:15.760Z,95930.28
2022-11-28T23:09:42.442Z,95932.09
2022-11-28T23:12:08.963Z,95927.72
2022-11-28T23:14:35.492Z,95928.00
2022-11-28T23:17:02.223Z,95927.00
2022-11-28T23:19:31.682Z,95919.13
2022-11-28T23:21:58.444Z,95920.13
2022-11-28T23:24:25.110Z,95929.97
2022-11-28T23:26:52.783Z,95919.53
2022-11-28T23:29:20.209Z,95927.41
2022-11-28T23:31:48.808Z,95923.03
2022-11-28T23:34:16.287Z,95919.53
2022-11-28T23:36:45.642Z,95909.38
2022-11-28T23:39:20.938Z,95921.50
2022-11-28T23:41:47.598Z,95923.31
2022-11-28T23:44:15.354Z,95913.59
2022-11-28T23:46:42.462Z,95919.22
2022-11-28T23:49:09.770Z,95920.06
2022-11-28T23:51:36.510Z,95915.69
2022-11-28T23:54:04.869Z,95917.53
2022-11-28T23:56:33.711Z,95925.53
2022-11-28T23:59:01.735Z,95919.47
